Scottish Airport Reports

Civil airfields updated at H+20 and H+50
RAF airfields updated at H+50 only

EGPD - Aberdeen
Distance from station: NNE 19mi, 31km
Updated: 21/08/2019 15:20
Clear
Clear
 Wind from S
Wind: S 15 mph , 24 km/h
Temperature: 17°C
Dew Point: 13°C
Humidity: 77%
Barometer: 1016 hPa
Summary: Clear
Visibility: greater than 7 miles , 10 km
2019/08/21 14:20 EGPD 211420Z 18013KT CAVOK 17/13 Q1016
EGPN - Dundee
Distance from station: SW 41mi, 66km
Updated: 21/08/2019 15:50
Partly cloudy
Partly cloudy
 Wind from SW
Wind: SW 20 mph , 31 km/h
Temperature: 18°C
Dew Point: 12°C
Humidity: 68%
Barometer: 1016 hPa
Clouds: Partly cloudy
Visibility: 6 miles , 10 km
Cloud details: Few Clouds 2000 ft
Partly cloudy 4000 ft
2019/08/21 14:50 EGPN 211450Z 22017KT 9999 FEW020 SCT040 18/12 Q1016
 
EGQS - RAF Lossiemouth
Distance from station: NNW 63mi, 102km
Updated: 21/08/2019 15:27
Overcast
Overcast
 Wind from SSW
Wind: SSW 10 mph , 17 km/h
Temperature: 18°C
Dew Point: 9°C
Humidity: 56%
Barometer: 1014 hPa
Clouds: Overcast
Visibility: 6 miles , 10 km
Cloud details: Few Clouds 4500 ft
Overcast 8000 ft
2019/08/21 14:27 EGQS 211427Z 21009KT 9999 FEW045 OVC080 18/09 Q1014 TEMPO 7000 -RA RMK BLU TEMPO WHT
EGPE - Inverness
Distance from station: WNW 73mi, 117km
Updated: 21/08/2019 15:50
Partly cloudy
Partly cloudy
 Wind from SSW
Wind: SSW 13 mph , 20 km/h
Temperature: 17°C
Dew Point: 10°C
Humidity: 64%
Barometer: 1013 hPa
Clouds: Partly cloudy
Visibility: 6 miles , 10 km
Cloud details: Few Clouds 3000 ft
Partly cloudy 4500 ft
2019/08/21 14:50 EGPE 211450Z 20011KT 170V240 9999 FEW030 SCT045 17/10 Q1013
 
EGPH - Edinburgh
Distance from station: SSW 77mi, 125km
Updated: 21/08/2019 15:50
Few Clouds
Few Clouds
 Wind from SSW
Wind: SSW 22 mph , 35 km/h
Temperature: 18°C
Dew Point: 11°C
Humidity: 64%
Barometer: 1017 hPa
Clouds: Few Clouds
Visibility: 6 miles , 10 km
Cloud details: Few Clouds 1400 ft
2019/08/21 14:50 EGPH 211450Z 21019KT 9999 FEW014 18/11 Q1017
EGPC - Wick
Distance from station: NNW 107mi, 172km
Updated: 21/08/2019 15:50
Few Clouds
Few Clouds
 Wind from S
Wind: S 9 mph , 15 km/h
Temperature: 16°C
Dew Point: 12°C
Humidity: 77%
Barometer: 1013 hPa
Clouds: Few Clouds
Visibility: 6 miles , 10 km
Cloud details: Few Clouds 1200 ft
2019/08/21 14:50 EGPC 211450Z 18008KT 9999 FEW012 16/12 Q1013
 
EGPF - Glasgow
Distance from station: SW 107mi, 172km
Updated: 21/08/2019 15:50
Light rain, Mostly cloudy
Light rain, Mostly cloudy
 Wind from S
Wind: S 16 mph , 26 km/h, Gust: 28 mph , 44 km/h
Temperature: 15°C
Dew Point: 13°C
Humidity: 88%
Barometer: 1017 hPa
Summary: Light rain
Clouds: Mostly cloudy
Visibility: 5 miles , 8 km
Cloud details: Partly cloudy 1800 ft
Mostly cloudy 2700 ft
2019/08/21 14:50 EGPF 211450Z 19014G24KT 8000 -RA SCT018CB BKN027 15/13 Q1017
EGPK - Prestwick
Distance from station: SW 130mi, 209km
Updated: 21/08/2019 15:50
Light rain, Mostly cloudy
Light rain, Mostly cloudy
 Wind from S
Wind: S 14 mph , 22 km/h
Temperature: 15°C
Dew Point: 13°C
Humidity: 88%
Barometer: 1017 hPa
Summary: Light rain
Clouds: Mostly cloudy
Visibility: 6 miles , 9 km
Cloud details: Few Clouds 2600 ft
Mostly cloudy 3000 ft
2019/08/21 14:50 EGPK 211450Z 17012KT 9000 -RA FEW026 BKN030 15/13 Q1017
 
EGPA - Kirkwall, Orkney
Distance from station: N 140mi, 225km
Updated: 21/08/2019 15:50
Few Clouds
Few Clouds
 Wind from SSE
Wind: SSE 14 mph , 22 km/h
Temperature: 15°C
Dew Point: 13°C
Humidity: 88%
Barometer: 1013 hPa
Clouds: Few Clouds
Visibility: 6 miles , 10 km
Cloud details: Few Clouds 2000 ft
2019/08/21 14:50 EGPA 211450Z 15012KT 9999 FEW020 15/13 Q1013
EGPO - Stornoway, Outer Hebrides
Distance from station: WNW 169mi, 273km
Updated: 21/08/2019 15:50
Light rain, Mostly cloudy
Light rain, Mostly cloudy
 Wind from SSE
Wind: SSE 29 mph , 46 km/h, Gust: 43 mph , 69 km/h
Temperature: 13°C
Dew Point: 12°C
Humidity: 94%
Barometer: 1009 hPa
Summary: Light rain
Clouds: Mostly cloudy
Visibility: 4 miles , 7 km
Cloud details: Few Clouds 600 ft
Partly cloudy 1300 ft
Mostly cloudy 1800 ft
2019/08/21 14:50 EGPO 211450Z 16025G37KT 7000 -RA FEW006 SCT013 BKN018 13/12 Q1009 RERA
 
EGPI - Islay, Inner Hebrides
Distance from station: WSW 172mi, 276km
Updated: 21/08/2019 15:20
Light rain, Clear
Light rain, Clear
 Wind from SSE
Wind: SSE 21 mph , 33 km/h
Temperature: 14°C
Dew Point: 14°C
Humidity: 100%
Barometer: 1013 hPa
Summary: Light rain
Clouds: Clear
Visibility: 6 miles , 10 km
2019/08/21 14:20 EGPI 211420Z AUTO 16018KT 120V190 9999 -RA NCD 14/14 Q1013
EGPU - Tiree, Inner Hebrides
Distance from station: W 172mi, 276km
Updated: 21/08/2019 15:50
Light rain, Mostly cloudy
Light rain, Mostly cloudy
 Wind from SSW
Wind: SSW 21 mph , 33 km/h, Gust: 37 mph , 59 km/h
Temperature: 14°C
Dew Point: 14°C
Humidity: 100%
Barometer: 1011 hPa
Summary: Light rain
Clouds: Mostly cloudy
Visibility: 6 miles , 9 km
Cloud details: Mostly cloudy 400 ft
Mostly cloudy 900 ft
2019/08/21 14:50 EGPU 211450Z 21018G32KT 9000 -RA BKN004 BKN009 14/14 Q1011
 
EGPB - Sumburgh, Shetland
Distance from station: NNE 208mi, 332km
Updated: 21/08/2019 15:20
Few Clouds
Few Clouds
 Wind from S
Wind: S 13 mph , 20 km/h
Temperature: 14°C
Dew Point: 12°C
Humidity: 88%
Barometer: 1016 hPa
Clouds: Few Clouds
Visibility: 6 miles , 10 km
Cloud details: Few Clouds 900 ft
2019/08/21 14:20 EGPB 211420Z 18011KT 9999 FEW009 14/12 Q1016
EGPM - Scatsa, Shetland
Distance from station: NNE 245mi, 392km
Updated: 21/08/2019 15:20
Few Clouds
Few Clouds
 Wind from SSE
Wind: SSE 24 mph , 39 km/h
Temperature: 15°C
Dew Point: 11°C
Humidity: 77%
Barometer: 1015 hPa
Clouds: Few Clouds
Visibility: 6 miles , 10 km
Cloud details: Few Clouds 2500 ft
2019/08/21 14:20 EGPM 211420Z 16021KT 9999 FEW025 15/11 Q1015
-->